DLH9815 EDNY-EDLW
Flight info
| Callsign | DLH9815 |
|---|---|
| Flight time | 0h 47m |
| Altitude | 36000 |
| Route | ALAGO1W ALAGO Z1 SUDEN Y710 ETAGO DCT SOGMI Z850 ADEMI ADEMI2A |
| Aircraft | A321/M-DE2E3FGIJ1LORVWXYZ/HB2 |
Departure
| Time | 2026-04-24 01:53 |
|---|---|
| Airport | Bodensee Airport Friedrichshafen (EDNY) |
Arrival
| Time | 2026-04-24 02:41 |
|---|---|
| Airport | Dortmund Airport (EDLW) |
| Time | Latitude | Longitude | Altitude | Speed | Heading |
|---|---|---|---|---|---|
| 2026-04-24 01:28 | 47.67340 | 9.52306 | 1376 ft | 0 kts | 174° |
| 2026-04-24 01:50 | 47.67339 | 9.52305 | 1376 ft | 0 kts | 182° |
| 2026-04-24 01:50 | 47.67337 | 9.52298 | 1376 ft | 1 kts | 232° |
| 2026-04-24 01:51 | 47.67347 | 9.52289 | 1372 ft | 3 kts | 343° |
| 2026-04-24 01:51 | 47.67384 | 9.52289 | 1376 ft | 8 kts | 25° |
| 2026-04-24 01:51 | 47.67424 | 9.52375 | 1373 ft | 12 kts | 59° |
| 2026-04-24 01:51 | 47.67476 | 9.52504 | 1374 ft | 16 kts | 59° |
| 2026-04-24 01:52 | 47.67529 | 9.52590 | 1376 ft | 10 kts | 17° |
| 2026-04-24 01:52 | 47.67603 | 9.52546 | 1375 ft | 14 kts | 324° |
| 2026-04-24 01:52 | 47.67632 | 9.52427 | 1374 ft | 13 kts | 226° |
| 2026-04-24 01:52 | 47.67599 | 9.52352 | 1375 ft | 0 kts | 239° |
| 2026-04-24 01:53 | 47.67597 | 9.52347 | 1374 ft | 4 kts | 239° |
| 2026-04-24 01:53 | 47.67504 | 9.52109 | 1373 ft | 70 kts | 240° |
| 2026-04-24 01:53 | 47.67094 | 9.51055 | 1412 ft | 158 kts | 240° |
| 2026-04-24 01:53 | 47.66499 | 9.49543 | 2145 ft | 180 kts | 240° |
| 2026-04-24 01:54 | 47.65841 | 9.47895 | 3164 ft | 187 kts | 238° |
| 2026-04-24 01:54 | 47.65128 | 9.46135 | 3728 ft | 215 kts | 238° |
| 2026-04-24 01:54 | 47.64320 | 9.44131 | 4504 ft | 229 kts | 239° |
| 2026-04-24 01:54 | 47.63511 | 9.42089 | 5665 ft | 230 kts | 239° |
| 2026-04-24 01:55 | 47.62784 | 9.39956 | 6755 ft | 234 kts | 256° |
| 2026-04-24 01:55 | 47.62878 | 9.37570 | 7691 ft | 237 kts | 296° |
| 2026-04-24 01:55 | 47.63943 | 9.35771 | 8724 ft | 234 kts | 328° |
| 2026-04-24 01:55 | 47.65343 | 9.34555 | 9869 ft | 234 kts | 334° |
| 2026-04-24 01:56 | 47.66803 | 9.33470 | 10881 ft | 236 kts | 336° |
| 2026-04-24 01:56 | 47.68337 | 9.32602 | 11806 ft | 238 kts | 352° |
| 2026-04-24 01:56 | 47.69993 | 9.32680 | 12742 ft | 241 kts | 14° |
| 2026-04-24 01:56 | 47.71526 | 9.33707 | 13705 ft | 245 kts | 36° |
| 2026-04-24 01:57 | 47.72779 | 9.35457 | 14585 ft | 249 kts | 44° |
| 2026-04-24 01:57 | 47.73986 | 9.37273 | 15462 ft | 251 kts | 45° |
| 2026-04-24 01:57 | 47.75233 | 9.39148 | 16386 ft | 253 kts | 45° |
| 2026-04-24 01:57 | 47.76462 | 9.40999 | 17274 ft | 255 kts | 45° |
| 2026-04-24 01:58 | 47.77715 | 9.42885 | 18168 ft | 258 kts | 46° |
| 2026-04-24 01:58 | 47.79042 | 9.44691 | 18975 ft | 261 kts | 36° |
| 2026-04-24 01:58 | 47.80682 | 9.45906 | 19664 ft | 270 kts | 20° |
| 2026-04-24 01:58 | 47.82625 | 9.46348 | 19896 ft | 297 kts | 3° |
| 2026-04-24 01:59 | 47.84777 | 9.46325 | 20076 ft | 321 kts | 2° |
| 2026-04-24 01:59 | 47.87091 | 9.46301 | 20228 ft | 345 kts | 2° |
| 2026-04-24 01:59 | 47.89556 | 9.46281 | 20527 ft | 361 kts | 2° |
| 2026-04-24 01:59 | 47.92090 | 9.46266 | 21098 ft | 368 kts | 2° |
| 2026-04-24 02:00 | 47.94671 | 9.46256 | 21761 ft | 373 kts | 2° |
| 2026-04-24 02:00 | 47.97278 | 9.46249 | 22432 ft | 377 kts | 2° |
| 2026-04-24 02:00 | 47.99918 | 9.46243 | 23085 ft | 381 kts | 2° |
| 2026-04-24 02:00 | 48.02592 | 9.46233 | 23710 ft | 386 kts | 2° |
| 2026-04-24 02:01 | 48.05292 | 9.46223 | 24250 ft | 390 kts | 2° |
| 2026-04-24 02:01 | 48.08014 | 9.46213 | 24798 ft | 393 kts | 2° |
| 2026-04-24 02:01 | 48.10760 | 9.46202 | 25333 ft | 396 kts | 2° |
| 2026-04-24 02:01 | 48.13526 | 9.46194 | 25874 ft | 399 kts | 2° |
| 2026-04-24 02:02 | 48.16322 | 9.46188 | 26408 ft | 403 kts | 2° |
| 2026-04-24 02:02 | 48.19102 | 9.46187 | 26946 ft | 406 kts | 2° |
| 2026-04-24 02:02 | 48.21940 | 9.46192 | 27480 ft | 409 kts | 2° |
| 2026-04-24 02:02 | 48.24794 | 9.46196 | 28010 ft | 412 kts | 2° |
| 2026-04-24 02:03 | 48.30591 | 9.46209 | 28968 ft | 421 kts | 2° |
| 2026-04-24 02:03 | 48.33527 | 9.46217 | 29463 ft | 424 kts | 2° |
| 2026-04-24 02:03 | 48.36509 | 9.46220 | 29965 ft | 428 kts | 2° |
| 2026-04-24 02:04 | 48.39503 | 9.46221 | 30437 ft | 431 kts | 2° |
| 2026-04-24 02:04 | 48.42514 | 9.46223 | 30865 ft | 434 kts | 2° |
| 2026-04-24 02:04 | 48.45546 | 9.46227 | 31299 ft | 437 kts | 2° |
| 2026-04-24 02:04 | 48.48592 | 9.46229 | 31792 ft | 438 kts | 2° |
| 2026-04-24 02:05 | 48.51629 | 9.46230 | 32424 ft | 435 kts | 3° |
| 2026-04-24 02:05 | 48.54651 | 9.46225 | 33062 ft | 433 kts | 3° |
| 2026-04-24 02:05 | 48.57664 | 9.46202 | 33700 ft | 431 kts | 2° |
| 2026-04-24 02:05 | 48.60657 | 9.46163 | 34305 ft | 429 kts | 2° |
| 2026-04-24 02:06 | 48.63601 | 9.46117 | 34830 ft | 428 kts | 2° |
| 2026-04-24 02:06 | 48.66576 | 9.46071 | 35355 ft | 427 kts | 2° |
| 2026-04-24 02:06 | 48.69540 | 9.46028 | 35876 ft | 425 kts | 2° |
| 2026-04-24 02:06 | 48.72500 | 9.45914 | 36160 ft | 427 kts | 358° |
| 2026-04-24 02:07 | 48.78299 | 9.44343 | 36236 ft | 417 kts | 352° |
| 2026-04-24 02:07 | 48.83956 | 9.42628 | 36234 ft | 414 kts | 352° |
| 2026-04-24 02:08 | 48.89597 | 9.40932 | 36235 ft | 413 kts | 352° |
| 2026-04-24 02:08 | 48.95237 | 9.39231 | 36237 ft | 413 kts | 352° |
| 2026-04-24 02:09 | 49.00873 | 9.37519 | 36236 ft | 413 kts | 351° |
| 2026-04-24 02:09 | 49.06510 | 9.35799 | 36237 ft | 413 kts | 351° |
| 2026-04-24 02:10 | 49.12104 | 9.34096 | 36239 ft | 413 kts | 352° |
| 2026-04-24 02:10 | 49.17715 | 9.32380 | 36233 ft | 413 kts | 351° |
| 2026-04-24 02:11 | 49.23346 | 9.30659 | 36225 ft | 413 kts | 351° |
| 2026-04-24 02:11 | 49.28993 | 9.28931 | 36224 ft | 414 kts | 351° |
| 2026-04-24 02:12 | 49.34594 | 9.27213 | 36232 ft | 414 kts | 351° |
| 2026-04-24 02:12 | 49.40222 | 9.25479 | 36230 ft | 414 kts | 351° |
| 2026-04-24 02:13 | 49.45915 | 9.23727 | 36244 ft | 415 kts | 351° |
| 2026-04-24 02:13 | 49.51530 | 9.21993 | 36255 ft | 415 kts | 351° |
| 2026-04-24 02:14 | 49.57191 | 9.20225 | 36262 ft | 415 kts | 351° |
| 2026-04-24 02:14 | 49.62847 | 9.18460 | 36262 ft | 415 kts | 350° |
| 2026-04-24 02:15 | 49.68500 | 9.16700 | 36268 ft | 414 kts | 350° |
| 2026-04-24 02:15 | 49.74150 | 9.14942 | 36274 ft | 414 kts | 350° |
| 2026-04-24 02:16 | 49.79806 | 9.13177 | 36273 ft | 414 kts | 350° |
| 2026-04-24 02:16 | 49.85446 | 9.11396 | 36274 ft | 413 kts | 350° |
| 2026-04-24 02:17 | 49.91085 | 9.09612 | 36271 ft | 413 kts | 350° |
| 2026-04-24 02:17 | 49.96725 | 9.07832 | 36272 ft | 414 kts | 350° |
| 2026-04-24 02:18 | 50.02463 | 9.06026 | 36260 ft | 426 kts | 350° |
| 2026-04-24 02:18 | 50.08300 | 9.04175 | 36262 ft | 429 kts | 349° |
| 2026-04-24 02:19 | 50.14116 | 9.02316 | 36262 ft | 428 kts | 349° |
| 2026-04-24 02:19 | 50.19954 | 9.00455 | 36259 ft | 428 kts | 349° |
| 2026-04-24 02:20 | 50.25793 | 8.98595 | 36260 ft | 428 kts | 349° |
| 2026-04-24 02:20 | 50.31634 | 8.96732 | 36267 ft | 429 kts | 349° |
| 2026-04-24 02:21 | 50.34554 | 8.95798 | 35963 ft | 430 kts | 349° |
| 2026-04-24 02:21 | 50.37517 | 8.94846 | 35028 ft | 437 kts | 349° |
| 2026-04-24 02:21 | 50.40496 | 8.93881 | 34173 ft | 441 kts | 349° |
| 2026-04-24 02:21 | 50.43509 | 8.92901 | 33244 ft | 444 kts | 349° |
| 2026-04-24 02:22 | 50.45505 | 8.92254 | 32765 ft | 442 kts | 349° |
| 2026-04-24 02:22 | 50.48504 | 8.91285 | 32140 ft | 438 kts | 349° |
| 2026-04-24 02:22 | 50.51454 | 8.90134 | 31517 ft | 435 kts | 341° |
| 2026-04-24 02:22 | 50.54169 | 8.88117 | 30902 ft | 431 kts | 328° |
| 2026-04-24 02:23 | 50.56580 | 8.85372 | 30294 ft | 426 kts | 323° |
| 2026-04-24 02:23 | 50.58923 | 8.82557 | 29589 ft | 422 kts | 323° |
| 2026-04-24 02:23 | 50.61243 | 8.79763 | 28911 ft | 417 kts | 323° |
| 2026-04-24 02:23 | 50.63539 | 8.76997 | 28260 ft | 412 kts | 323° |
| 2026-04-24 02:24 | 50.65804 | 8.74262 | 27616 ft | 408 kts | 323° |
| 2026-04-24 02:24 | 50.68010 | 8.71598 | 26996 ft | 403 kts | 323° |
| 2026-04-24 02:24 | 50.70253 | 8.68890 | 26375 ft | 399 kts | 323° |
| 2026-04-24 02:24 | 50.72415 | 8.66279 | 25781 ft | 394 kts | 323° |
| 2026-04-24 02:25 | 50.74581 | 8.63660 | 25191 ft | 390 kts | 323° |
| 2026-04-24 02:25 | 50.76730 | 8.61053 | 24624 ft | 387 kts | 323° |
| 2026-04-24 02:25 | 50.78854 | 8.58476 | 24063 ft | 383 kts | 323° |
| 2026-04-24 02:25 | 50.80958 | 8.55923 | 23449 ft | 379 kts | 323° |
| 2026-04-24 02:26 | 50.83026 | 8.53415 | 23124 ft | 367 kts | 323° |
| 2026-04-24 02:26 | 50.85018 | 8.50994 | 22852 ft | 355 kts | 323° |
| 2026-04-24 02:26 | 50.86958 | 8.48627 | 22585 ft | 350 kts | 323° |
| 2026-04-24 02:26 | 50.88893 | 8.46270 | 22334 ft | 350 kts | 323° |
| 2026-04-24 02:27 | 50.90817 | 8.43929 | 22066 ft | 349 kts | 323° |
| 2026-04-24 02:27 | 50.92741 | 8.41580 | 21801 ft | 347 kts | 323° |
| 2026-04-24 02:27 | 50.94646 | 8.39247 | 21547 ft | 346 kts | 323° |
| 2026-04-24 02:27 | 50.96547 | 8.36917 | 21294 ft | 344 kts | 323° |
| 2026-04-24 02:28 | 50.98410 | 8.34630 | 21050 ft | 342 kts | 323° |
| 2026-04-24 02:28 | 51.00291 | 8.32322 | 20801 ft | 341 kts | 323° |
| 2026-04-24 02:28 | 51.02213 | 8.30149 | 20559 ft | 339 kts | 330° |
| 2026-04-24 02:28 | 51.04251 | 8.28341 | 20257 ft | 331 kts | 331° |
| 2026-04-24 02:29 | 51.06250 | 8.26569 | 19830 ft | 327 kts | 331° |
| 2026-04-24 02:29 | 51.08218 | 8.24814 | 19394 ft | 323 kts | 330° |
| 2026-04-24 02:29 | 51.10164 | 8.23072 | 18970 ft | 319 kts | 330° |
| 2026-04-24 02:29 | 51.12089 | 8.21348 | 18443 ft | 318 kts | 330° |
| 2026-04-24 02:30 | 51.14027 | 8.19621 | 17770 ft | 320 kts | 331° |
| 2026-04-24 02:30 | 51.15966 | 8.17895 | 17247 ft | 318 kts | 331° |
| 2026-04-24 02:30 | 51.17886 | 8.16186 | 16722 ft | 314 kts | 331° |
| 2026-04-24 02:30 | 51.19785 | 8.14493 | 16221 ft | 311 kts | 331° |
| 2026-04-24 02:31 | 51.21668 | 8.12811 | 15730 ft | 308 kts | 331° |
| 2026-04-24 02:31 | 51.23531 | 8.11141 | 15232 ft | 306 kts | 331° |
| 2026-04-24 02:31 | 51.25378 | 8.09484 | 14753 ft | 304 kts | 332° |
| 2026-04-24 02:31 | 51.27216 | 8.07834 | 14278 ft | 302 kts | 332° |
| 2026-04-24 02:32 | 51.29039 | 8.06198 | 13779 ft | 299 kts | 332° |
| 2026-04-24 02:32 | 51.30845 | 8.04577 | 13252 ft | 297 kts | 331° |
| 2026-04-24 02:32 | 51.32643 | 8.02958 | 12753 ft | 295 kts | 331° |
| 2026-04-24 02:32 | 51.34399 | 8.01374 | 12282 ft | 292 kts | 332° |
| 2026-04-24 02:33 | 51.36154 | 7.99787 | 11710 ft | 285 kts | 332° |
| 2026-04-24 02:33 | 51.37867 | 7.98238 | 10751 ft | 281 kts | 332° |
| 2026-04-24 02:33 | 51.39550 | 7.96720 | 9880 ft | 274 kts | 332° |
| 2026-04-24 02:33 | 51.41194 | 7.95233 | 8961 ft | 267 kts | 332° |
| 2026-04-24 02:34 | 51.42797 | 7.93787 | 8092 ft | 262 kts | 332° |
| 2026-04-24 02:34 | 51.44370 | 7.92380 | 7232 ft | 256 kts | 333° |
| 2026-04-24 02:34 | 51.45976 | 7.91235 | 6354 ft | 249 kts | 341° |
| 2026-04-24 02:34 | 51.47599 | 7.90306 | 5486 ft | 245 kts | 341° |
| 2026-04-24 02:35 | 51.49119 | 7.89425 | 5255 ft | 218 kts | 341° |
| 2026-04-24 02:35 | 51.50454 | 7.88648 | 4956 ft | 197 kts | 341° |
| 2026-04-24 02:35 | 51.51675 | 7.87937 | 4717 ft | 178 kts | 341° |
| 2026-04-24 02:35 | 51.52817 | 7.87273 | 4302 ft | 173 kts | 341° |
| 2026-04-24 02:36 | 51.53948 | 7.86613 | 3836 ft | 172 kts | 341° |
| 2026-04-24 02:36 | 51.55073 | 7.85955 | 3367 ft | 172 kts | 340° |
| 2026-04-24 02:36 | 51.56201 | 7.85280 | 3027 ft | 173 kts | 336° |
| 2026-04-24 02:36 | 51.57204 | 7.84162 | 3018 ft | 178 kts | 316° |
| 2026-04-24 02:37 | 51.57892 | 7.82491 | 3015 ft | 182 kts | 296° |
| 2026-04-24 02:37 | 51.58141 | 7.80487 | 2922 ft | 185 kts | 274° |
| 2026-04-24 02:37 | 51.57889 | 7.78559 | 2743 ft | 169 kts | 250° |
| 2026-04-24 02:37 | 51.57349 | 7.76977 | 2544 ft | 155 kts | 245° |
| 2026-04-24 02:38 | 51.56843 | 7.75527 | 2347 ft | 144 kts | 244° |
| 2026-04-24 02:38 | 51.56367 | 7.74163 | 2158 ft | 136 kts | 244° |
| 2026-04-24 02:38 | 51.55912 | 7.72862 | 1968 ft | 132 kts | 243° |
| 2026-04-24 02:38 | 51.55474 | 7.71609 | 1794 ft | 129 kts | 243° |
| 2026-04-24 02:39 | 51.55038 | 7.70363 | 1607 ft | 127 kts | 243° |
| 2026-04-24 02:39 | 51.54610 | 7.69140 | 1428 ft | 125 kts | 242° |
| 2026-04-24 02:39 | 51.54187 | 7.67932 | 1251 ft | 123 kts | 242° |
| 2026-04-24 02:39 | 51.53769 | 7.66741 | 1070 ft | 122 kts | 241° |
| 2026-04-24 02:40 | 51.53355 | 7.65564 | 912 ft | 120 kts | 241° |
| 2026-04-24 02:40 | 51.52945 | 7.64398 | 751 ft | 120 kts | 241° |
| 2026-04-24 02:40 | 51.52538 | 7.63243 | 594 ft | 117 kts | 241° |
| 2026-04-24 02:40 | 51.52143 | 7.62107 | 423 ft | 116 kts | 242° |
| 2026-04-24 02:41 | 51.51804 | 7.61146 | 410 ft | 76 kts | 240° |
| 2026-04-24 02:41 | 51.51629 | 7.60644 | 412 ft | 29 kts | 240° |
| 2026-04-24 02:41 | 51.51547 | 7.60409 | 412 ft | 22 kts | 241° |
| 2026-04-24 02:41 | 51.51468 | 7.60245 | 414 ft | 17 kts | 205° |
| 2026-04-24 02:42 | 51.51394 | 7.60273 | 412 ft | 12 kts | 148° |
| 2026-04-24 02:42 | 51.51374 | 7.60423 | 415 ft | 19 kts | 65° |
| 2026-04-24 02:42 | 51.51441 | 7.60618 | 417 ft | 22 kts | 59° |
| 2026-04-24 02:42 | 51.51491 | 7.60762 | 415 ft | 16 kts | 62° |
| 2026-04-24 02:43 | 51.51544 | 7.60916 | 424 ft | 15 kts | 62° |
| 2026-04-24 02:43 | 51.51591 | 7.61076 | 423 ft | 18 kts | 66° |
| 2026-04-24 02:43 | 51.51638 | 7.61212 | 428 ft | 12 kts | 60° |
| 2026-04-24 02:43 | 51.51668 | 7.61299 | 425 ft | 2 kts | 61° |
| 2026-04-24 02:44 | 51.51668 | 7.61300 | 425 ft | 0 kts | 61° |
| 2026-04-24 02:50 | 51.51658 | 7.61273 | 424 ft | 4 kts | 43° |
| 2026-04-24 02:51 | 51.51636 | 7.61254 | 430 ft | 4 kts | 1° |
| 2026-04-24 02:51 | 51.51611 | 7.61262 | 430 ft | 3 kts | 332° |
| 2026-04-24 02:51 | 51.51591 | 7.61279 | 422 ft | 3 kts | 332° |
| 2026-04-24 02:51 | 51.51587 | 7.61282 | 422 ft | 1 kts | 332° |
| 2026-04-24 02:52 | 51.51587 | 7.61283 | 422 ft | 0 kts | 332° |